Niagara, North Dakota
Current Conditions -  °F | °C
As of 1:58 PM on Friday 31 Oct 2014 (Local Time) from KRDR Reporting Station
Clear Clear  
Wind Chill: 29°   Ceiling: Unl
Heat Index: 37°   Visibility: 10mi
Dew Point: 19°   Wind: 12mph
Humidity: 47%   Direction: 170°S
Pressure: 30.5"   Gusts: NA
Location:  48°N, 97.87°W
Report Text: KRDR 311858Z AUTO 17010KT 10SM CLR 03/M07 A3050 RMK AO2 SLP348 T00271075
Loading
Personal Weather Stations






























Interactive Weather Map
Tropical Storm Tracking
New forecast layout! Learn more

10-Day Weather Forecast

Advertisements
Track Severe Weather on mobile